Terminal Aerodrome Forecast
Issued by NWS

Home | Current Version | Previous Version | Text Only | Print | Product List | Glossary On
Versions: 1 2 3 4 5 6 7 8 9 10 11 12 13 14 15 16 17 18 19 20 21 22
000
FTUS44 KBMX 030042 AAA
TAFANB
TAF AMD
KANB 030042Z 0301/0324 24006KT 5SM SHRA VCTS BKN025CB OVC100
     FM030200 24003KT P6SM VCSH SCT025 OVC100
     FM030600 28003KT 5SM BR SCT007 BKN010
     FM030900 28003KT 4SM BR BKN007
     FM031700 29008KT P6SM SCT015 BKN050=

USA.gov is the U.S. government's official web portal to all federal, state and local government web resources and services.